createdAt,value
2023-04-30T00:00:42.930Z,27.98
2023-04-30T00:03:10.269Z,37.28
2023-04-30T00:05:38.761Z,30.88
2023-04-30T00:08:08.397Z,33.47
2023-04-30T00:10:35.075Z,28.80
2023-04-30T00:13:12.772Z,30.08
2023-04-30T00:15:46.503Z,26.92
2023-04-30T00:18:13.138Z,33.15
2023-04-30T00:20:39.788Z,27.88
2023-04-30T00:23:09.874Z,29.02
2023-04-30T00:25:37.054Z,28.00
2023-04-30T00:28:09.779Z,30.95
2023-04-30T00:30:39.505Z,33.17
2023-04-30T00:33:08.999Z,31.35
2023-04-30T00:35:35.611Z,28.08
2023-04-30T00:38:03.413Z,28.48
2023-04-30T00:40:30.330Z,32.20
2023-04-30T00:42:57.568Z,25.48
2023-04-30T00:45:26.460Z,31.38
2023-04-30T00:47:54.581Z,26.52
2023-04-30T00:50:21.342Z,28.48
2023-04-30T00:52:48.119Z,28.70
2023-04-30T00:55:15.437Z,30.73
2023-04-30T00:57:53.363Z,32.30
2023-04-30T01:00:25.127Z,26.17
2023-04-30T01:02:54.422Z,29.70
2023-04-30T01:05:23.650Z,26.38
2023-04-30T01:08:00.724Z,27.13
2023-04-30T01:10:48.103Z,28.58
2023-04-30T01:13:30.930Z,31.25
2023-04-30T01:16:09.157Z,23.30
2023-04-30T01:19:09.064Z,24.92
2023-04-30T01:21:51.465Z,25.85
2023-04-30T01:24:38.664Z,25.92
2023-04-30T01:27:14.839Z,27.10
2023-04-30T01:29:43.836Z,32.85
2023-04-30T01:32:13.889Z,27.88
2023-04-30T01:34:50.618Z,26.80
2023-04-30T01:37:32.439Z,27.85
2023-04-30T01:40:19.782Z,32.67
2023-04-30T01:43:09.310Z,30.85
2023-04-30T01:46:28.173Z,25.35
2023-04-30T01:49:09.896Z,28.85
2023-04-30T01:51:47.092Z,27.02
2023-04-30T01:54:59.473Z,27.92
2023-04-30T02:00:00.232Z,25.95
2023-04-30T02:02:26.922Z,23.25
2023-04-30T02:04:53.637Z,24.23
2023-04-30T02:07:46.323Z,27.05
2023-04-30T02:10:13.686Z,28.95
2023-04-30T02:12:43.090Z,23.65
2023-04-30T02:15:10.487Z,29.60
2023-04-30T02:17:37.167Z,25.90
2023-04-30T02:20:04.634Z,27.50
2023-04-30T02:22:31.775Z,23.92
2023-04-30T02:24:58.391Z,27.90
2023-04-30T02:27:30.957Z,25.27
2023-04-30T02:29:58.099Z,25.23
2023-04-30T02:32:30.639Z,26.88
2023-04-30T02:35:04.126Z,25.63
2023-04-30T02:37:31.357Z,25.70
2023-04-30T02:39:58.164Z,29.25
2023-04-30T02:42:33.412Z,29.33
2023-04-30T02:45:01.410Z,25.95
2023-04-30T02:47:37.221Z,27.95
2023-04-30T02:50:04.098Z,29.17
2023-04-30T02:52:34.819Z,25.42
2023-04-30T02:55:11.411Z,28.08
2023-04-30T02:57:44.931Z,28.75
2023-04-30T03:00:17.706Z,27.00
2023-04-30T03:02:47.239Z,27.65
2023-04-30T03:05:21.090Z,33.22
2023-04-30T03:07:47.841Z,26.00
2023-04-30T03:10:14.536Z,31.20
2023-04-30T03:12:41.298Z,28.65
2023-04-30T03:15:09.257Z,31.40
2023-04-30T03:17:36.161Z,27.80
2023-04-30T03:20:08.909Z,28.02
2023-04-30T03:22:40.500Z,27.27
2023-04-30T03:25:07.589Z,31.02
2023-04-30T03:27:34.315Z,27.20
2023-04-30T03:30:02.429Z,25.52
2023-04-30T03:32:29.398Z,31.17
2023-04-30T03:34:56.566Z,30.35
2023-04-30T03:37:28.099Z,28.25
2023-04-30T03:40:08.987Z,31.75
2023-04-30T03:42:40.922Z,30.70
2023-04-30T03:45:16.579Z,31.60
2023-04-30T03:47:43.555Z,33.85
2023-04-30T03:50:10.983Z,32.13
2023-04-30T03:52:37.949Z,34.67
2023-04-30T03:55:05.374Z,30.13
2023-04-30T03:57:32.963Z,33.97
2023-04-30T04:00:00.532Z,33.47
2023-04-30T04:02:28.510Z,37.45
2023-04-30T04:04:55.204Z,31.10
2023-04-30T04:07:21.798Z,37.63
2023-04-30T04:09:49.000Z,31.70
2023-04-30T04:12:15.767Z,29.08
2023-04-30T04:14:42.390Z,31.67
2023-04-30T04:17:09.035Z,29.83
2023-04-30T04:19:35.676Z,31.42
2023-04-30T04:22:04.963Z,33.70
2023-04-30T04:24:31.857Z,31.10
2023-04-30T04:26:58.511Z,34.65
2023-04-30T04:29:25.769Z,30.27
2023-04-30T04:31:52.414Z,30.67
2023-04-30T04:34:20.170Z,32.83
2023-04-30T04:36:49.879Z,32.20
2023-04-30T04:39:28.283Z,28.70
2023-04-30T04:41:55.317Z,30.88
2023-04-30T04:44:22.502Z,35.88
2023-04-30T04:46:54.067Z,26.08
2023-04-30T04:49:21.060Z,28.63
2023-04-30T04:51:47.980Z,34.50
2023-04-30T04:54:14.631Z,30.77
2023-04-30T04:56:41.441Z,34.72
2023-04-30T04:59:10.898Z,31.63
2023-04-30T05:01:40.520Z,31.40
2023-04-30T05:04:09.721Z,32.22
2023-04-30T05:06:36.864Z,36.05
2023-04-30T05:09:05.327Z,28.67
2023-04-30T05:11:32.141Z,31.50
2023-04-30T05:13:58.730Z,33.15
2023-04-30T05:16:27.941Z,33.08
2023-04-30T05:19:02.121Z,31.95
2023-04-30T05:21:32.259Z,32.75
2023-04-30T05:24:04.100Z,30.73
2023-04-30T05:28:59.977Z,30.55
2023-04-30T05:31:26.617Z,34.78
2023-04-30T05:33:53.272Z,30.40
2023-04-30T05:36:21.353Z,35.40
2023-04-30T05:38:47.958Z,31.92
2023-04-30T05:41:14.567Z,33.55
2023-04-30T05:43:44.227Z,34.92
2023-04-30T05:46:10.832Z,37.25
2023-04-30T05:48:39.214Z,32.38
2023-04-30T05:51:06.747Z,31.45
2023-04-30T05:53:34.726Z,31.08
2023-04-30T05:56:13.445Z,35.05
2023-04-30T05:58:49.093Z,31.17
2023-04-30T06:01:15.761Z,36.78
2023-04-30T06:03:49.733Z,33.28
2023-04-30T06:06:18.870Z,33.88
2023-04-30T06:08:48.232Z,38.85
2023-04-30T06:11:15.458Z,33.40
2023-04-30T06:13:42.419Z,33.90
2023-04-30T06:16:09.208Z,38.17
2023-04-30T06:18:44.094Z,34.28
2023-04-30T06:21:17.768Z,33.92
2023-04-30T06:23:44.625Z,35.42
2023-04-30T06:26:14.614Z,34.17
2023-04-30T06:28:46.641Z,32.83
2023-04-30T06:31:13.705Z,33.03
2023-04-30T06:33:43.084Z,35.25
2023-04-30T06:36:09.811Z,41.75
2023-04-30T06:38:36.932Z,42.35
2023-04-30T06:41:03.613Z,39.13
2023-04-30T06:43:31.980Z,39.70
2023-04-30T06:46:01.458Z,41.72
2023-04-30T06:48:31.234Z,38.55
2023-04-30T06:50:59.896Z,40.28
2023-04-30T06:53:28.338Z,37.30
2023-04-30T06:55:56.703Z,40.53
2023-04-30T06:58:27.164Z,43.83
2023-04-30T07:00:54.256Z,41.17
2023-04-30T07:03:21.679Z,43.30
2023-04-30T07:05:48.389Z,33.20
2023-04-30T07:08:20.783Z,29.63
2023-04-30T07:10:53.710Z,41.03
2023-04-30T07:13:20.684Z,32.55
2023-04-30T07:15:50.611Z,37.97
2023-04-30T07:18:17.714Z,40.30
2023-04-30T07:20:48.940Z,32.17
2023-04-30T07:23:23.435Z,32.17
2023-04-30T07:25:50.117Z,33.20
2023-04-30T07:28:16.743Z,29.83
2023-04-30T07:30:43.305Z,29.90
2023-04-30T07:33:13.554Z,30.52
2023-04-30T07:35:40.133Z,30.45
2023-04-30T07:38:06.851Z,27.70
2023-04-30T07:40:36.378Z,29.98
2023-04-30T07:43:05.144Z,28.83
2023-04-30T07:45:32.235Z,24.50
2023-04-30T07:47:58.898Z,31.50
2023-04-30T07:50:25.725Z,27.08
2023-04-30T07:52:59.534Z,27.75
2023-04-30T07:55:26.332Z,24.15
2023-04-30T07:57:54.461Z,27.70
2023-04-30T08:00:21.168Z,26.02
2023-04-30T08:02:50.694Z,32.88
2023-04-30T08:05:22.486Z,25.77
2023-04-30T08:07:49.063Z,23.23
2023-04-30T08:10:15.714Z,23.80
2023-04-30T08:12:42.648Z,22.10
2023-04-30T08:15:09.380Z,22.38
2023-04-30T08:17:39.159Z,25.95
2023-04-30T08:20:08.217Z,24.92
2023-04-30T08:22:36.387Z,22.67
2023-04-30T08:25:03.527Z,25.05
2023-04-30T08:27:32.434Z,24.15
2023-04-30T08:29:59.082Z,24.00
2023-04-30T08:32:26.135Z,25.55
2023-04-30T08:34:54.502Z,26.25
2023-04-30T08:37:21.262Z,22.67
2023-04-30T08:39:47.892Z,20.35
2023-04-30T08:42:15.541Z,23.83
2023-04-30T08:44:46.721Z,18.98
2023-04-30T08:47:27.865Z,17.25
2023-04-30T08:49:56.516Z,19.50
2023-04-30T08:52:23.479Z,22.30
2023-04-30T08:54:52.324Z,18.55
2023-04-30T08:57:20.434Z,17.40
2023-04-30T08:59:47.612Z,14.38
2023-04-30T09:02:29.319Z,17.23
2023-04-30T09:07:29.137Z,14.73
2023-04-30T09:10:00.838Z,14.45
2023-04-30T09:12:33.393Z,13.20
2023-04-30T09:15:05.345Z,15.07
2023-04-30T09:17:39.168Z,15.75
2023-04-30T09:20:13.436Z,15.70
2023-04-30T09:22:41.956Z,15.55
2023-04-30T09:25:11.853Z,15.38
2023-04-30T09:27:38.723Z,18.40
2023-04-30T09:30:09.304Z,16.83
2023-04-30T09:32:36.888Z,16.00
2023-04-30T09:35:04.323Z,20.27
2023-04-30T09:37:39.835Z,15.77
2023-04-30T09:40:10.506Z,19.27
2023-04-30T09:42:37.370Z,18.87
2023-04-30T09:45:05.389Z,16.00
2023-04-30T09:47:39.785Z,13.75
2023-04-30T09:50:06.999Z,13.27
2023-04-30T09:52:33.548Z,12.27
2023-04-30T09:55:06.013Z,16.13
2023-04-30T09:57:36.314Z,11.93
2023-04-30T10:00:03.952Z,11.82
2023-04-30T10:02:31.104Z,12.77
2023-04-30T10:04:58.778Z,14.43
2023-04-30T10:07:36.902Z,13.65
2023-04-30T10:10:08.459Z,14.18
2023-04-30T10:18:28.571Z,14.82
2023-04-30T10:20:57.169Z,14.82
2023-04-30T10:23:28.129Z,15.93
2023-04-30T10:25:57.636Z,17.67
2023-04-30T10:28:25.339Z,16.60
2023-04-30T10:30:55.395Z,20.08
2023-04-30T10:33:54.586Z,17.27
2023-04-30T10:37:07.308Z,16.73
2023-04-30T10:39:40.174Z,16.35
2023-04-30T10:42:10.203Z,15.70
2023-04-30T10:44:42.878Z,15.60
2023-04-30T10:47:13.914Z,15.48
2023-04-30T10:49:48.482Z,15.32
2023-04-30T10:52:34.829Z,18.02
2023-04-30T10:55:07.945Z,15.07
2023-04-30T10:57:43.437Z,16.40
2023-04-30T11:00:12.342Z,14.38
2023-04-30T11:02:50.099Z,16.23
2023-04-30T11:05:18.568Z,17.17
2023-04-30T11:07:57.266Z,18.65
2023-04-30T11:10:26.488Z,15.77
2023-04-30T11:12:56.926Z,14.23
2023-04-30T11:15:33.724Z,16.55
2023-04-30T11:18:01.025Z,14.00
2023-04-30T11:20:28.384Z,11.40
2023-04-30T11:23:21.834Z,10.93
2023-04-30T11:25:55.188Z,11.73
2023-04-30T11:28:28.944Z,8.20
2023-04-30T11:31:03.130Z,10.90
2023-04-30T11:33:32.080Z,12.70
2023-04-30T11:36:01.932Z,12.10
2023-04-30T11:38:34.464Z,9.48
2023-04-30T11:41:01.916Z,11.00
2023-04-30T11:43:31.169Z,11.07
2023-04-30T11:46:23.562Z,11.13
2023-04-30T11:48:54.439Z,8.52
2023-04-30T11:51:27.070Z,5.57
2023-04-30T11:53:54.083Z,6.50
2023-04-30T11:56:32.902Z,6.55
2023-04-30T11:58:59.809Z,10.25
2023-04-30T12:01:28.943Z,6.53
2023-04-30T12:04:00.880Z,7.32
2023-04-30T12:06:28.954Z,6.35
2023-04-30T12:09:09.295Z,6.20
2023-04-30T12:11:41.895Z,6.95
2023-04-30T12:14:17.838Z,6.63
2023-04-30T12:17:04.137Z,7.35
2023-04-30T12:19:31.641Z,7.25
2023-04-30T12:21:58.754Z,7.95
2023-04-30T12:24:27.818Z,7.60
2023-04-30T12:26:54.855Z,10.25
2023-04-30T12:29:28.550Z,6.30
2023-04-30T12:32:03.686Z,10.38
2023-04-30T12:34:32.937Z,8.25
2023-04-30T12:37:01.995Z,5.65
2023-04-30T12:39:38.837Z,11.55
2023-04-30T12:42:07.685Z,7.45
2023-04-30T12:44:47.730Z,8.25
2023-04-30T12:47:19.293Z,8.20
2023-04-30T12:49:47.036Z,9.73
2023-04-30T12:52:15.526Z,9.80
2023-04-30T12:54:42.346Z,5.93
2023-04-30T12:57:11.071Z,6.07
2023-04-30T12:59:59.011Z,6.60
2023-04-30T13:02:29.688Z,8.98
2023-04-30T13:04:57.168Z,11.38
2023-04-30T13:07:24.019Z,6.70
2023-04-30T13:09:50.860Z,6.47
2023-04-30T13:12:20.490Z,5.88
2023-04-30T13:14:48.439Z,8.00
2023-04-30T13:17:18.464Z,7.38
2023-04-30T13:19:46.125Z,5.40
2023-04-30T13:22:12.874Z,6.70
2023-04-30T13:24:39.759Z,8.13
2023-04-30T13:27:06.821Z,8.02
2023-04-30T13:29:36.212Z,8.25
2023-04-30T13:32:10.312Z,7.03
2023-04-30T13:34:37.044Z,8.18
2023-04-30T13:37:03.785Z,8.32
2023-04-30T13:39:30.584Z,5.97
2023-04-30T13:41:57.214Z,6.80
2023-04-30T13:44:24.993Z,9.20
2023-04-30T13:46:52.000Z,5.50
2023-04-30T13:49:18.691Z,7.03
2023-04-30T13:51:47.782Z,7.00
2023-04-30T13:54:14.422Z,5.88
2023-04-30T13:56:41.654Z,6.35
2023-04-30T13:59:08.427Z,7.05
2023-04-30T14:01:35.084Z,6.60
2023-04-30T14:04:02.633Z,8.90
2023-04-30T14:06:29.859Z,7.35
2023-04-30T14:08:56.639Z,8.18
2023-04-30T14:11:23.391Z,9.02
2023-04-30T14:13:50.154Z,6.78
2023-04-30T14:16:19.084Z,5.45
2023-04-30T14:18:45.694Z,7.60
2023-04-30T14:21:12.414Z,4.65
2023-04-30T14:23:39.620Z,12.13
2023-04-30T14:26:14.791Z,7.50
2023-04-30T14:28:42.142Z,9.38
2023-04-30T14:31:09.450Z,10.35
2023-04-30T14:33:36.233Z,9.48
2023-04-30T14:36:03.102Z,6.13
2023-04-30T14:38:41.079Z,8.20
2023-04-30T14:41:11.475Z,15.38
2023-04-30T14:43:38.584Z,10.70
2023-04-30T14:46:21.141Z,7.47
2023-04-30T14:48:51.592Z,5.40
2023-04-30T14:51:18.931Z,5.75
2023-04-30T14:53:50.107Z,5.43
2023-04-30T14:56:17.310Z,6.32
2023-04-30T14:58:44.312Z,7.10
2023-04-30T15:01:11.026Z,6.82
2023-04-30T15:03:39.618Z,8.52
2023-04-30T15:06:06.797Z,9.68
2023-04-30T15:08:33.545Z,6.78
2023-04-30T15:11:07.325Z,9.57
2023-04-30T15:13:37.170Z,5.30
2023-04-30T15:16:08.396Z,7.20
2023-04-30T15:18:36.236Z,5.45
2023-04-30T15:21:07.027Z,5.50
2023-04-30T15:23:33.919Z,8.48
2023-04-30T15:26:01.872Z,9.63
2023-04-30T15:28:28.490Z,6.57
2023-04-30T15:30:55.313Z,11.55
2023-04-30T15:33:29.121Z,6.30
2023-04-30T15:35:56.462Z,7.57
2023-04-30T15:38:23.151Z,8.15
2023-04-30T15:40:52.040Z,9.05
2023-04-30T15:43:21.042Z,5.55
2023-04-30T15:45:52.120Z,7.63
2023-04-30T15:48:19.096Z,5.10
2023-04-30T15:50:51.320Z,6.93
2023-04-30T15:53:17.945Z,4.88
2023-04-30T15:55:59.816Z,11.35
2023-04-30T15:58:26.440Z,5.93
2023-04-30T16:00:55.912Z,6.82
2023-04-30T16:03:22.773Z,5.47
2023-04-30T16:05:49.583Z,6.55
2023-04-30T16:08:16.505Z,7.25
2023-04-30T16:10:43.709Z,7.88
2023-04-30T16:13:10.297Z,6.25
2023-04-30T16:15:36.941Z,8.45
2023-04-30T16:18:03.621Z,6.68
2023-04-30T16:20:33.473Z,6.85
2023-04-30T16:23:07.709Z,6.47
2023-04-30T16:25:34.583Z,7.38
2023-04-30T16:28:09.718Z,4.97
2023-04-30T16:30:38.003Z,6.57
2023-04-30T16:33:04.790Z,4.55
2023-04-30T16:35:31.546Z,4.03
2023-04-30T16:37:58.413Z,4.85
2023-04-30T16:40:27.245Z,5.40
2023-04-30T16:42:56.838Z,5.50
2023-04-30T16:45:23.501Z,4.60
2023-04-30T16:47:50.137Z,4.13
2023-04-30T16:50:17.022Z,4.85
2023-04-30T16:52:47.709Z,3.33
2023-04-30T16:55:14.672Z,7.67
2023-04-30T16:57:41.549Z,7.82
2023-04-30T17:03:02.296Z,5.25
2023-04-30T17:05:32.047Z,3.90
2023-04-30T17:07:58.819Z,7.05
2023-04-30T17:10:26.668Z,4.20
2023-04-30T17:12:53.556Z,5.07
2023-04-30T17:15:30.938Z,6.05
2023-04-30T17:17:59.278Z,4.95
2023-04-30T17:20:31.373Z,5.13
2023-04-30T17:22:59.347Z,5.15
2023-04-30T17:25:32.080Z,13.05
2023-04-30T17:28:01.602Z,5.80
2023-04-30T17:30:29.261Z,5.60
2023-04-30T17:32:56.659Z,8.55
2023-04-30T17:35:23.545Z,6.45
2023-04-30T17:37:50.230Z,4.90
2023-04-30T17:40:21.578Z,8.88
2023-04-30T17:42:51.606Z,9.23
2023-04-30T17:45:19.262Z,4.57
2023-04-30T17:47:46.047Z,6.22
2023-04-30T17:50:15.707Z,5.03
2023-04-30T17:52:42.537Z,5.18
2023-04-30T17:55:09.832Z,5.20
2023-04-30T17:57:37.001Z,5.22
2023-04-30T18:00:05.307Z,8.93
2023-04-30T18:02:32.799Z,6.28
2023-04-30T18:05:05.430Z,10.25
2023-04-30T18:07:32.373Z,6.78
2023-04-30T18:09:59.762Z,5.88
2023-04-30T18:12:27.000Z,5.25
2023-04-30T18:14:53.620Z,6.03
2023-04-30T18:17:24.440Z,5.82
2023-04-30T18:19:51.180Z,7.63
2023-04-30T18:22:19.677Z,8.07
2023-04-30T18:24:46.347Z,7.82
2023-04-30T18:27:13.323Z,8.07
2023-04-30T18:29:40.105Z,5.97
2023-04-30T18:32:06.880Z,10.57
2023-04-30T18:34:37.555Z,7.93
2023-04-30T18:39:31.970Z,7.63
2023-04-30T18:41:58.730Z,7.88
2023-04-30T18:44:31.802Z,7.28
2023-04-30T18:46:59.140Z,6.93
2023-04-30T18:49:28.445Z,10.25
2023-04-30T18:51:55.460Z,10.95
2023-04-30T18:54:27.578Z,8.18
2023-04-30T18:56:58.594Z,7.68
2023-04-30T18:59:29.156Z,7.80
2023-04-30T19:01:57.441Z,7.13
2023-04-30T19:04:24.267Z,10.38
2023-04-30T19:06:52.542Z,8.80
2023-04-30T19:09:19.859Z,12.32
2023-04-30T19:11:46.646Z,10.25
2023-04-30T19:14:13.756Z,9.02
2023-04-30T19:16:45.646Z,12.63
2023-04-30T19:19:13.183Z,8.55
2023-04-30T19:21:40.122Z,9.35
2023-04-30T19:24:08.419Z,9.60
2023-04-30T19:26:37.505Z,10.18
2023-04-30T19:29:06.945Z,11.13
2023-04-30T19:31:40.585Z,9.02
2023-04-30T19:34:17.504Z,8.85
2023-04-30T19:36:47.317Z,9.13
2023-04-30T19:39:15.746Z,9.13
2023-04-30T19:41:43.038Z,11.40
2023-04-30T19:44:10.362Z,8.65
2023-04-30T19:46:38.013Z,8.48
2023-04-30T19:49:05.413Z,8.13
2023-04-30T19:51:32.300Z,8.30
2023-04-30T19:54:04.178Z,8.38
2023-04-30T19:56:32.193Z,13.40
2023-04-30T19:58:59.890Z,8.55
2023-04-30T20:01:30.857Z,8.40
2023-04-30T20:04:02.160Z,9.50
2023-04-30T20:06:32.073Z,13.18
2023-04-30T20:11:52.425Z,10.45
2023-04-30T20:14:19.967Z,10.82
2023-04-30T20:17:01.419Z,10.25
2023-04-30T20:19:28.950Z,12.13
2023-04-30T20:22:07.450Z,9.32
2023-04-30T20:24:41.081Z,9.07
2023-04-30T20:27:08.872Z,11.55
2023-04-30T20:29:43.047Z,15.75
2023-04-30T20:32:10.221Z,18.23
2023-04-30T20:34:37.459Z,13.10
2023-04-30T20:37:11.125Z,12.25
2023-04-30T20:39:49.155Z,18.83
2023-04-30T20:42:19.898Z,12.60
2023-04-30T20:44:49.507Z,15.23
2023-04-30T20:47:25.141Z,15.50
2023-04-30T20:49:58.040Z,18.90
2023-04-30T20:52:34.492Z,14.88
2023-04-30T20:55:08.962Z,18.90
2023-04-30T20:57:37.497Z,17.48
2023-04-30T21:00:08.323Z,18.08
2023-04-30T21:02:36.886Z,19.27
2023-04-30T21:05:05.549Z,14.45
2023-04-30T21:07:45.757Z,16.42
2023-04-30T21:10:20.459Z,19.48
2023-04-30T21:12:47.100Z,15.32
2023-04-30T21:15:13.757Z,21.50
2023-04-30T21:17:40.490Z,19.08
2023-04-30T21:20:13.079Z,17.38
2023-04-30T21:22:39.824Z,18.58
2023-04-30T21:25:07.484Z,15.88
2023-04-30T21:27:41.187Z,18.08
2023-04-30T21:30:08.797Z,14.93
2023-04-30T21:32:35.694Z,14.95
2023-04-30T21:35:02.375Z,19.85
2023-04-30T21:37:29.293Z,20.25
2023-04-30T21:40:01.235Z,19.02
2023-04-30T21:42:32.086Z,18.42
2023-04-30T21:44:59.846Z,20.08
2023-04-30T21:47:27.062Z,14.90
2023-04-30T21:50:00.157Z,21.02
2023-04-30T21:52:26.991Z,18.02
2023-04-30T21:55:00.312Z,19.30
2023-04-30T21:57:30.538Z,16.98
2023-04-30T21:59:59.669Z,17.45
2023-04-30T22:02:27.052Z,15.75
2023-04-30T22:04:56.596Z,17.40
2023-04-30T22:07:24.628Z,15.95
2023-04-30T22:09:55.100Z,17.25
2023-04-30T22:12:25.190Z,19.50
2023-04-30T22:14:55.696Z,18.58
2023-04-30T22:17:24.753Z,17.67
2023-04-30T22:19:51.751Z,17.65
2023-04-30T22:22:18.401Z,16.58
2023-04-30T22:24:45.199Z,17.98
2023-04-30T22:27:11.894Z,19.98
2023-04-30T22:29:41.289Z,23.77
2023-04-30T22:32:11.496Z,20.63
2023-04-30T22:34:41.039Z,17.70
2023-04-30T22:37:14.689Z,19.67
2023-04-30T22:39:57.470Z,19.08
2023-04-30T22:42:27.083Z,19.08
2023-04-30T22:44:58.502Z,21.65
2023-04-30T22:47:28.461Z,20.50
2023-04-30T22:49:56.473Z,21.35
2023-04-30T22:52:23.744Z,18.63
2023-04-30T22:54:50.411Z,23.40
2023-04-30T22:57:20.073Z,21.08
2023-04-30T22:59:49.388Z,21.95
2023-04-30T23:02:17.772Z,24.15
2023-04-30T23:04:44.522Z,21.33
2023-04-30T23:07:11.306Z,22.63
2023-04-30T23:09:43.337Z,20.58
2023-04-30T23:12:13.800Z,19.75
2023-04-30T23:14:40.379Z,21.98
2023-04-30T23:17:07.239Z,22.75
2023-04-30T23:19:34.272Z,26.05
2023-04-30T23:22:04.476Z,24.00
2023-04-30T23:24:39.332Z,21.23
2023-04-30T23:27:09.841Z,20.60
2023-04-30T23:29:41.020Z,22.45
2023-04-30T23:32:13.559Z,27.27
2023-04-30T23:34:42.619Z,21.00
2023-04-30T23:37:12.580Z,25.35
2023-04-30T23:39:41.990Z,22.92
2023-04-30T23:42:08.908Z,25.20
2023-04-30T23:44:41.316Z,23.48
2023-04-30T23:47:08.026Z,23.25
2023-04-30T23:49:39.476Z,25.95
2023-04-30T23:52:07.262Z,25.92
2023-04-30T23:54:39.286Z,22.95
2023-04-30T23:57:11.138Z,25.45
2023-04-30T23:59:37.830Z,25.92
